Time;durP1;ratioP1;P1;durP2;ratioP2;P2;SDS_P1;SDS_P2;PMS_P1;PMS_P2;Temp;Humidity;BMP_temperature;BMP_pressure;BME280_temperature;BME280_humidity;BME280_pressure;Samples;Min_cycle;Max_cycle;Signal;HPM_P1;HPM_P2
2022/01/08 00:00:43;;;;;;;1.42;1.25;;;;;;;;;;5054389;28;20112;-68
2022/01/08 00:03:09;;;;;;;4.07;1.48;;;;;;;;;;5056762;28;20025;-69
2022/01/08 00:05:34;;;;;;;4.53;1.30;;;;;;;;;;5058078;28;20036;-69
2022/01/08 00:07:59;;;;;;;3.28;1.52;;;;;;;;;;5072889;28;20127;-69
2022/01/08 00:10:25;;;;;;;4.18;2.03;;;;;;;;;;5073535;28;20520;-69
2022/01/08 00:12:51;;;;;;;5.03;1.48;;;;;;;;;;5073519;28;20021;-69
2022/01/08 00:15:16;;;;;;;3.20;1.85;;;;;;;;;;5073557;28;20385;-70
2022/01/08 00:17:42;;;;;;;2.25;1.50;;;;;;;;;;5073700;28;20024;-65
2022/01/08 00:20:07;;;;;;;4.13;2.47;;;;;;;;;;5073967;28;20040;-69
2022/01/08 00:22:32;;;;;;;3.38;1.65;;;;;;;;;;5073123;28;20028;-70
2022/01/08 00:24:58;;;;;;;3.60;1.60;;;;;;;;;;5070504;28;20036;-70
2022/01/08 00:27:23;;;;;;;2.83;1.48;;;;;;;;;;5073212;28;20392;-70
2022/01/08 00:29:49;;;;;;;2.97;1.70;;;;;;;;;;5072796;28;20107;-68
2022/01/08 00:32:15;;;;;;;4.45;1.60;;;;;;;;;;5073883;28;20012;-69
2022/01/08 00:34:41;;;;;;;2.15;1.20;;;;;;;;;;5072943;28;20572;-69
2022/01/08 00:37:06;;;;;;;3.33;1.55;;;;;;;;;;5073082;28;20112;-70
2022/01/08 00:39:32;;;;;;;5.88;1.60;;;;;;;;;;5073187;28;20094;-69
2022/01/08 00:41:57;;;;;;;3.53;1.50;;;;;;;;;;5073401;28;20507;-69
2022/01/08 00:44:22;;;;;;;2.50;1.38;;;;;;;;;;5072446;28;20056;-69
2022/01/08 00:46:47;;;;;;;2.47;1.20;;;;;;;;;;5073155;28;20032;-69
2022/01/08 00:49:13;;;;;;;2.22;1.30;;;;;;;;;;5073324;28;20382;-69
2022/01/08 00:51:38;;;;;;;3.72;1.63;;;;;;;;;;5073121;28;20408;-69
2022/01/08 00:54:03;;;;;;;1.83;1.48;;;;;;;;;;5073228;28;20035;-69
2022/01/08 00:56:28;;;;;;;3.28;1.58;;;;;;;;;;5073189;28;20037;-69
2022/01/08 00:58:54;;;;;;;2.97;1.20;;;;;;;;;;5072894;28;20032;-71
2022/01/08 01:01:19;;;;;;;2.20;1.05;;;;;;;;;;5073236;28;20085;-69
2022/01/08 01:03:44;;;;;;;2.63;1.70;;;;;;;;;;5073466;28;20059;-71
2022/01/08 01:06:09;;;;;;;3.90;1.60;;;;;;;;;;5073292;28;20047;-70
2022/01/08 01:08:35;;;;;;;2.85;1.08;;;;;;;;;;5073618;28;20012;-70
2022/01/08 01:11:00;;;;;;;3.33;1.45;;;;;;;;;;5073084;28;20048;-70
2022/01/08 01:13:25;;;;;;;3.30;1.00;;;;;;;;;;5073324;28;20538;-69
2022/01/08 01:15:51;;;;;;;2.55;1.33;;;;;;;;;;5072911;28;20400;-70
2022/01/08 01:18:16;;;;;;;2.83;1.13;;;;;;;;;;5073085;28;20049;-70
2022/01/08 01:20:41;;;;;;;3.42;1.77;;;;;;;;;;5073347;28;20465;-70
2022/01/08 01:25:39;;;;;;;2.17;1.50;;;;;;;;;;5072893;28;20043;-70
2022/01/08 01:28:23;;;;;;;2.28;1.25;;;;;;;;;;5072943;28;20518;-70
2022/01/08 01:41:04;;;;;;;2.78;1.30;;;;;;;;;;5072971;28;20105;-69
2022/01/08 01:41:54;;;;;;;4.30;1.55;;;;;;;;;;5073325;28;20086;-70
2022/01/08 01:47:04;;;;;;;3.60;1.25;;;;;;;;;;5072680;28;20075;-70
2022/01/08 01:49:30;;;;;;;1.83;1.20;;;;;;;;;;5072487;28;20064;-70
2022/01/08 01:51:55;;;;;;;2.53;1.35;;;;;;;;;;5071451;28;20032;-69
2022/01/08 01:54:21;;;;;;;3.35;1.42;;;;;;;;;;5072869;28;20420;-70
2022/01/08 01:56:46;;;;;;;2.88;1.50;;;;;;;;;;5072958;28;20107;-70
2022/01/08 01:59:12;;;;;;;2.78;1.30;;;;;;;;;;5073227;28;20518;-70
2022/01/08 02:01:37;;;;;;;4.10;1.50;;;;;;;;;;5072438;28;20086;-70
2022/01/08 02:04:03;;;;;;;5.80;1.23;;;;;;;;;;5072999;28;20025;-70
2022/01/08 02:06:28;;;;;;;3.97;1.67;;;;;;;;;;5072410;28;20334;-70
2022/01/08 02:08:53;;;;;;;2.65;1.35;;;;;;;;;;5073886;28;20023;-70
2022/01/08 02:11:20;;;;;;;1.70;0.93;;;;;;;;;;5076971;28;20357;-70
2022/01/08 02:13:46;;;;;;;3.75;1.60;;;;;;;;;;5076517;28;20024;-69
2022/01/08 02:16:17;;;;;;;3.85;2.35;;;;;;;;;;5076336;28;20396;-71
2022/01/08 02:18:42;;;;;;;;;;;;;;;;;;5076921;28;20078;-70
2022/01/08 02:21:07;;;;;;;3.47;1.63;;;;;;;;;;5076511;28;19970;-70
2022/01/08 02:23:32;;;;;;;3.85;1.45;;;;;;;;;;5076499;28;20135;-70
2022/01/08 02:26:02;;;;;;;2.95;1.58;;;;;;;;;;5075942;28;20400;-69
2022/01/08 02:28:27;;;;;;;3.65;1.48;;;;;;;;;;5075816;28;20392;-69
2022/01/08 02:30:52;;;;;;;4.80;2.08;;;;;;;;;;5075457;28;20037;-70
2022/01/08 02:33:18;;;;;;;2.28;1.42;;;;;;;;;;5075809;28;20033;-70
2022/01/08 02:35:44;;;;;;;3.53;1.40;;;;;;;;;;5075667;28;20047;-70
2022/01/08 02:38:09;;;;;;;3.75;1.80;;;;;;;;;;5076155;28;20427;-70
2022/01/08 02:40:36;;;;;;;4.20;2.05;;;;;;;;;;5075733;28;20036;-70
2022/01/08 02:43:04;;;;;;;2.47;1.38;;;;;;;;;;5075706;28;20033;-71
2022/01/08 02:45:30;;;;;;;3.28;1.60;;;;;;;;;;5075962;28;20040;-70
2022/01/08 02:47:56;;;;;;;4.80;1.98;;;;;;;;;;5075730;28;20029;-69
2022/01/08 02:50:21;;;;;;;4.72;1.55;;;;;;;;;;5075970;28;20104;-70
2022/01/08 02:52:47;;;;;;;4.07;1.65;;;;;;;;;;5075147;28;20082;-70
2022/01/08 02:55:16;;;;;;;3.88;1.65;;;;;;;;;;5075494;28;20070;-70
2022/01/08 02:57:42;;;;;;;2.08;1.25;;;;;;;;;;5075396;28;20044;-71
2022/01/08 03:00:08;;;;;;;4.03;2.00;;;;;;;;;;5075521;28;20062;-70
2022/01/08 03:02:33;;;;;;;3.97;1.98;;;;;;;;;;5075748;28;20124;-71
2022/01/08 03:04:58;;;;;;;2.97;1.63;;;;;;;;;;5075418;28;20045;-71
2022/01/08 03:07:24;;;;;;;4.15;1.42;;;;;;;;;;5075605;28;20029;-70
2022/01/08 03:09:57;;;;;;;2.17;1.33;;;;;;;;;;5075237;28;20024;-70
2022/01/08 03:12:26;;;;;;;1.65;1.20;;;;;;;;;;5075767;28;20124;-70
2022/01/08 03:14:51;;;;;;;2.53;1.35;;;;;;;;;;5075606;28;20027;-69
2022/01/08 03:17:16;;;;;;;5.57;1.40;;;;;;;;;;5075936;28;20025;-70
2022/01/08 03:19:41;;;;;;;2.95;1.50;;;;;;;;;;5074926;28;20037;-70
2022/01/08 03:22:07;;;;;;;4.00;1.65;;;;;;;;;;5075546;28;20024;-69
2022/01/08 03:24:32;;;;;;;2.78;1.45;;;;;;;;;;5075781;28;20070;-70
2022/01/08 03:26:57;;;;;;;5.65;1.42;;;;;;;;;;5076149;28;20503;-70
2022/01/08 03:29:23;;;;;;;3.70;1.60;;;;;;;;;;5075636;28;20029;-70
2022/01/08 03:31:48;;;;;;;4.28;1.52;;;;;;;;;;5074774;28;20047;-70
2022/01/08 03:34:13;;;;;;;3.63;1.35;;;;;;;;;;5074862;28;20039;-69
2022/01/08 03:36:38;;;;;;;2.78;1.20;;;;;;;;;;5074825;28;20021;-70
2022/01/08 03:39:04;;;;;;;4.45;1.75;;;;;;;;;;5074774;28;20028;-70
2022/01/08 03:41:29;;;;;;;3.03;1.52;;;;;;;;;;5075479;28;20449;-70
2022/01/08 03:43:54;;;;;;;2.40;1.17;;;;;;;;;;5074859;28;20059;-70
2022/01/08 03:46:21;;;;;;;6.68;1.48;;;;;;;;;;5074845;28;20036;-70
2022/01/08 03:49:10;;;;;;;4.20;1.50;;;;;;;;;;5074622;28;20055;-70
2022/01/08 03:51:32;;;;;;;3.13;1.48;;;;;;;;;;5074599;28;20049;-70
2022/01/08 03:53:58;;;;;;;5.38;1.40;;;;;;;;;;5074243;28;20358;-69
2022/01/08 03:56:24;;;;;;;2.47;1.10;;;;;;;;;;5074852;28;20040;-70
2022/01/08 03:58:49;;;;;;;5.10;1.42;;;;;;;;;;5074536;28;20131;-70
2022/01/08 04:01:14;;;;;;;3.50;1.30;;;;;;;;;;5074384;28;20028;-70
2022/01/08 04:03:39;;;;;;;2.25;0.98;;;;;;;;;;5074305;28;20082;-70
2022/01/08 04:06:04;;;;;;;6.55;1.55;;;;;;;;;;5074240;28;20094;-70
2022/01/08 04:08:30;;;;;;;3.38;1.50;;;;;;;;;;5074328;28;20415;-70
2022/01/08 04:10:55;;;;;;;2.75;1.42;;;;;;;;;;5074350;28;20037;-70
2022/01/08 04:13:27;;;;;;;2.80;1.15;;;;;;;;;;5073075;28;20029;-70
2022/01/08 04:15:57;;;;;;;5.47;1.63;;;;;;;;;;5073999;28;20082;-70
2022/01/08 04:18:23;;;;;;;4.45;1.45;;;;;;;;;;5074044;28;20036;-70
2022/01/08 04:21:20;;;;;;;3.10;1.23;;;;;;;;;;5074016;28;20028;-70
2022/01/08 04:23:42;;;;;;;3.67;1.20;;;;;;;;;;5073862;28;20480;-69
2022/01/08 04:26:07;;;;;;;4.40;1.45;;;;;;;;;;5074001;28;20028;-70
2022/01/08 04:28:33;;;;;;;6.18;1.85;;;;;;;;;;5073217;28;20120;-70
2022/01/08 04:30:58;;;;;;;3.08;1.17;;;;;;;;;;5072803;28;20040;-70
2022/01/08 04:33:23;;;;;;;5.72;1.73;;;;;;;;;;5072856;28;20044;-70
2022/01/08 04:35:48;;;;;;;2.60;1.08;;;;;;;;;;5073061;28;20380;-70
2022/01/08 04:38:14;;;;;;;4.43;1.40;;;;;;;;;;5074187;28;20556;-70
2022/01/08 04:40:39;;;;;;;2.97;1.27;;;;;;;;;;5072359;28;20049;-71
2022/01/08 04:43:04;;;;;;;3.90;1.30;;;;;;;;;;5073805;28;20024;-71
2022/01/08 04:45:30;;;;;;;3.80;1.25;;;;;;;;;;5073699;28;20029;-70
2022/01/08 04:47:59;;;;;;;5.15;1.02;;;;;;;;;;5073297;28;20437;-71
2022/01/08 04:50:25;;;;;;;6.05;1.30;;;;;;;;;;5074207;28;20028;-70
2022/01/08 04:52:50;;;;;;;4.47;1.55;;;;;;;;;;5073321;28;20029;-70
2022/01/08 04:55:16;;;;;;;5.05;1.38;;;;;;;;;;5073617;28;20103;-70
2022/01/08 04:57:41;;;;;;;2.45;1.02;;;;;;;;;;5073376;28;20032;-70
2022/01/08 05:00:06;;;;;;;3.80;1.27;;;;;;;;;;5073520;28;20040;-70
2022/01/08 05:02:32;;;;;;;3.63;1.27;;;;;;;;;;5057613;28;20021;-71
2022/01/08 05:04:57;;;;;;;5.07;1.45;;;;;;;;;;5052766;28;20404;-70
2022/01/08 05:07:22;;;;;;;5.55;1.20;;;;;;;;;;5053939;28;20029;-70
2022/01/08 05:09:47;;;;;;;2.70;1.50;;;;;;;;;;5072386;28;20158;-69
2022/01/08 05:12:13;;;;;;;2.55;1.00;;;;;;;;;;5072901;28;20159;-69
2022/01/08 05:14:38;;;;;;;4.47;1.40;;;;;;;;;;5073273;28;20025;-71
2022/01/08 05:17:03;;;;;;;2.72;1.00;;;;;;;;;;5072508;28;20071;-70
2022/01/08 05:19:40;;;;;;;3.60;1.10;;;;;;;;;;5072798;28;20060;-71
2022/01/08 05:22:07;;;;;;;1.95;1.08;;;;;;;;;;5072978;28;20576;-70
2022/01/08 05:24:32;;;;;;;3.38;1.30;;;;;;;;;;5072901;28;20112;-71
2022/01/08 05:26:58;;;;;;;3.42;1.13;;;;;;;;;;5073129;28;20063;-70
2022/01/08 05:29:23;;;;;;;2.35;0.82;;;;;;;;;;5073196;28;20024;-70
2022/01/08 05:31:48;;;;;;;6.30;1.17;;;;;;;;;;5072768;28;20037;-70
2022/01/08 05:34:13;;;;;;;5.28;0.98;;;;;;;;;;5071677;28;20037;-70
2022/01/08 05:36:39;;;;;;;3.83;1.08;;;;;;;;;;5074206;28;20052;-70
2022/01/08 05:39:04;;;;;;;4.88;1.30;;;;;;;;;;5073132;28;20546;-70
2022/01/08 05:41:30;;;;;;;3.85;1.08;;;;;;;;;;5073145;28;20505;-71
2022/01/08 05:43:55;;;;;;;4.63;1.17;;;;;;;;;;5072373;28;20033;-70
2022/01/08 05:46:20;;;;;;;4.97;1.25;;;;;;;;;;5072659;28;20029;-70
2022/01/08 05:48:45;;;;;;;5.25;1.00;;;;;;;;;;5072525;28;20036;-70
2022/01/08 05:51:10;;;;;;;2.70;1.10;;;;;;;;;;5073005;28;20485;-70
2022/01/08 05:53:36;;;;;;;3.85;1.20;;;;;;;;;;5072793;28;20083;-70
2022/01/08 05:56:04;;;;;;;2.13;1.17;;;;;;;;;;5072335;28;20039;-70
2022/01/08 05:58:29;;;;;;;2.80;1.27;;;;;;;;;;5072478;28;20037;-70
2022/01/08 06:00:54;;;;;;;4.55;1.38;;;;;;;;;;5072566;28;20044;-71
2022/01/08 06:03:19;;;;;;;2.97;1.00;;;;;;;;;;5072545;28;20036;-72
2022/01/08 06:05:45;;;;;;;5.22;2.08;;;;;;;;;;5072414;28;20060;-70
2022/01/08 06:08:10;;;;;;;3.53;1.05;;;;;;;;;;5072610;28;20518;-70
2022/01/08 06:10:35;;;;;;;2.83;1.05;;;;;;;;;;5072639;28;20484;-70
2022/01/08 06:13:03;;;;;;;5.68;1.02;;;;;;;;;;5072246;28;20037;-70
2022/01/08 06:15:28;;;;;;;2.05;0.68;;;;;;;;;;5070363;28;20028;-70
2022/01/08 06:17:53;;;;;;;1.98;0.90;;;;;;;;;;5072265;28;20040;-70
2022/01/08 06:20:19;;;;;;;2.42;1.13;;;;;;;;;;5073097;28;20033;-70
2022/01/08 06:22:44;;;;;;;1.63;0.70;;;;;;;;;;5062946;28;20059;-65
2022/01/08 06:25:09;;;;;;;4.72;1.38;;;;;;;;;;5070640;28;20028;-66
2022/01/08 06:27:35;;;;;;;3.58;0.93;;;;;;;;;;5072074;28;20033;-66
2022/01/08 06:30:00;;;;;;;4.55;1.15;;;;;;;;;;5072010;28;20067;-65
2022/01/08 06:32:25;;;;;;;1.17;1.02;;;;;;;;;;5072484;28;20489;-65
2022/01/08 06:34:50;;;;;;;1.40;0.80;;;;;;;;;;5071617;28;20036;-65
2022/01/08 06:37:15;;;;;;;3.75;1.15;;;;;;;;;;5072022;28;20059;-66
2022/01/08 06:39:41;;;;;;;5.55;1.50;;;;;;;;;;5071776;28;20063;-67
2022/01/08 06:42:06;;;;;;;3.55;1.00;;;;;;;;;;5072193;28;20519;-67
2022/01/08 06:44:32;;;;;;;2.85;0.70;;;;;;;;;;5072852;28;20060;-68
2022/01/08 06:46:57;;;;;;;2.47;0.90;;;;;;;;;;5071825;28;20472;-65
2022/01/08 06:49:22;;;;;;;2.17;0.60;;;;;;;;;;5071440;28;20116;-64
2022/01/08 06:51:48;;;;;;;3.85;1.50;;;;;;;;;;5071623;28;20025;-65
2022/01/08 06:54:13;;;;;;;5.35;1.10;;;;;;;;;;5071664;28;20040;-64
2022/01/08 06:56:38;;;;;;;4.70;1.27;;;;;;;;;;5074821;28;20049;-65
2022/01/08 06:59:03;;;;;;;3.28;1.27;;;;;;;;;;5075112;28;20136;-69
2022/01/08 07:01:29;;;;;;;4.60;1.13;;;;;;;;;;5075197;28;20025;-67
2022/01/08 07:03:57;;;;;;;4.30;1.30;;;;;;;;;;5075071;28;20016;-68
2022/01/08 07:06:22;;;;;;;2.40;1.00;;;;;;;;;;5075176;28;20033;-69
2022/01/08 07:08:48;;;;;;;2.40;0.85;;;;;;;;;;5073253;28;20016;-68
2022/01/08 07:11:13;;;;;;;4.90;1.20;;;;;;;;;;5075677;28;20024;-68
2022/01/08 07:13:38;;;;;;;4.65;1.40;;;;;;;;;;5075274;28;20040;-69
2022/01/08 07:16:04;;;;;;;4.25;1.85;;;;;;;;;;5074962;28;20039;-69
2022/01/08 07:18:29;;;;;;;3.42;1.42;;;;;;;;;;5075084;28;20423;-68
2022/01/08 07:20:54;;;;;;;3.28;1.35;;;;;;;;;;5074926;28;20557;-68
2022/01/08 07:23:20;;;;;;;2.70;1.00;;;;;;;;;;5075468;28;20052;-66
2022/01/08 07:25:45;;;;;;;4.43;1.48;;;;;;;;;;5075161;28;20036;-66
2022/01/08 07:28:10;;;;;;;3.50;1.27;;;;;;;;;;5074724;28;20082;-69
2022/01/08 07:30:35;;;;;;;4.95;1.17;;;;;;;;;;5074760;28;20047;-66
2022/01/08 07:33:02;;;;;;;3.83;1.10;;;;;;;;;;5074418;28;20021;-65
2022/01/08 07:35:27;;;;;;;2.67;1.05;;;;;;;;;;5074773;28;20056;-65
2022/01/08 07:37:53;;;;;;;1.85;0.70;;;;;;;;;;5074665;28;20140;-65
2022/01/08 07:40:19;;;;;;;4.68;1.00;;;;;;;;;;5074987;28;20358;-68
2022/01/08 07:42:44;;;;;;;3.20;0.90;;;;;;;;;;5074779;28;20362;-68
2022/01/08 07:45:10;;;;;;;2.90;0.93;;;;;;;;;;5074691;28;20028;-67
2022/01/08 07:47:36;;;;;;;2.15;0.80;;;;;;;;;;5074725;28;20051;-67
2022/01/08 07:50:02;;;;;;;4.75;1.27;;;;;;;;;;5074301;28;20484;-68
2022/01/08 07:52:27;;;;;;;1.73;0.75;;;;;;;;;;5074439;28;20115;-67
2022/01/08 07:54:52;;;;;;;3.75;1.00;;;;;;;;;;5074443;28;20105;-64
2022/01/08 07:57:18;;;;;;;3.42;1.08;;;;;;;;;;5074288;28;20020;-67
2022/01/08 07:59:43;;;;;;;2.28;0.90;;;;;;;;;;5073111;28;20040;-59
2022/01/08 08:02:09;;;;;;;1.48;0.63;;;;;;;;;;5074642;28;20024;-60
2022/01/08 08:04:34;;;;;;;3.47;0.95;;;;;;;;;;5071485;28;20029;-69
2022/01/08 08:06:59;;;;;;;4.22;1.00;;;;;;;;;;5073992;28;20369;-65
2022/01/08 08:09:24;;;;;;;2.20;0.73;;;;;;;;;;5073688;28;20075;-66
2022/01/08 08:11:50;;;;;;;2.25;0.80;;;;;;;;;;5073952;28;20025;-65
2022/01/08 08:14:15;;;;;;;3.42;1.60;;;;;;;;;;5074376;28;20020;-67
2022/01/08 08:16:40;;;;;;;1.35;0.57;;;;;;;;;;5073628;28;20093;-65
2022/01/08 08:19:05;;;;;;;3.13;0.98;;;;;;;;;;5073712;28;20032;-65
2022/01/08 08:21:31;;;;;;;3.30;0.88;;;;;;;;;;5073585;28;20501;-65
2022/01/08 08:23:56;;;;;;;1.40;0.57;;;;;;;;;;5073574;28;20037;-65
2022/01/08 08:26:21;;;;;;;2.53;0.77;;;;;;;;;;5073976;28;20020;-64
2022/01/08 08:28:47;;;;;;;3.58;0.65;;;;;;;;;;5071242;28;20074;-64
2022/01/08 08:31:12;;;;;;;4.45;1.08;;;;;;;;;;5071110;28;20816;-62
2022/01/08 08:33:38;;;;;;;1.98;0.85;;;;;;;;;;5071549;28;20036;-64
2022/01/08 08:36:03;;;;;;;6.63;1.13;;;;;;;;;;5072137;28;20853;-63
2022/01/08 08:38:28;;;;;;;2.67;0.65;;;;;;;;;;5072788;28;20024;-65
2022/01/08 08:40:54;;;;;;;3.53;0.70;;;;;;;;;;5072127;28;20028;-63
2022/01/08 08:43:20;;;;;;;3.53;1.10;;;;;;;;;;5071011;28;20029;-62
2022/01/08 08:45:45;;;;;;;2.58;0.70;;;;;;;;;;5072577;28;20029;-63
2022/01/08 08:48:11;;;;;;;4.63;1.02;;;;;;;;;;5068961;28;20487;-61
2022/01/08 08:50:36;;;;;;;6.15;0.50;;;;;;;;;;5071980;28;20040;-61
2022/01/08 08:53:01;;;;;;;2.28;0.70;;;;;;;;;;5071717;28;20028;-63
2022/01/08 08:55:26;;;;;;;3.10;0.80;;;;;;;;;;5071615;28;20025;-66
2022/01/08 08:57:52;;;;;;;3.80;0.70;;;;;;;;;;5071299;28;20032;-64
2022/01/08 09:00:17;;;;;;;7.13;1.00;;;;;;;;;;5070931;28;20090;-62
2022/01/08 09:02:42;;;;;;;2.85;0.95;;;;;;;;;;5071215;28;20450;-60
2022/01/08 09:05:08;;;;;;;2.70;0.75;;;;;;;;;;5071442;28;20034;-64
2022/01/08 09:07:34;;;;;;;4.35;0.80;;;;;;;;;;5071470;28;20059;-60
2022/01/08 09:10:00;;;;;;;4.40;1.30;;;;;;;;;;5070567;28;20056;-60
2022/01/08 09:12:25;;;;;;;3.20;0.70;;;;;;;;;;5072531;28;20044;-60
2022/01/08 09:14:50;;;;;;;4.80;0.88;;;;;;;;;;5072130;28;20027;-61
2022/01/08 09:17:17;;;;;;;2.40;1.23;;;;;;;;;;5072113;28;20401;-59
2022/01/08 09:19:43;;;;;;;4.80;1.20;;;;;;;;;;5071410;28;20040;-60
2022/01/08 09:22:09;;;;;;;2.60;0.75;;;;;;;;;;5071369;28;20037;-65
2022/01/08 09:24:36;;;;;;;2.90;0.77;;;;;;;;;;5071652;28;20073;-65
2022/01/08 09:27:03;;;;;;;3.25;1.05;;;;;;;;;;5071308;28;20067;-61
2022/01/08 09:29:28;;;;;;;3.30;1.15;;;;;;;;;;5071061;28;20056;-61
2022/01/08 09:31:53;;;;;;;2.63;0.80;;;;;;;;;;5071240;28;20059;-63
2022/01/08 09:34:19;;;;;;;2.70;0.93;;;;;;;;;;5069948;28;20040;-63
2022/01/08 09:36:45;;;;;;;11.85;1.05;;;;;;;;;;5071121;28;20071;-62
2022/01/08 09:39:10;;;;;;;3.85;1.00;;;;;;;;;;5070846;28;20033;-62
2022/01/08 09:41:35;;;;;;;3.80;0.70;;;;;;;;;;5071468;28;20025;-63
2022/01/08 09:44:01;;;;;;;4.97;1.13;;;;;;;;;;5070290;28;20024;-61
2022/01/08 09:46:26;;;;;;;2.78;0.90;;;;;;;;;;5070731;28;20041;-61
2022/01/08 09:48:52;;;;;;;3.13;0.90;;;;;;;;;;5070225;28;20057;-65
2022/01/08 09:51:17;;;;;;;2.70;0.95;;;;;;;;;;5071335;28;20045;-63
2022/01/08 09:53:43;;;;;;;1.98;0.70;;;;;;;;;;5069230;28;20368;-60
2022/01/08 09:56:09;;;;;;;3.38;0.70;;;;;;;;;;5071073;28;20070;-65
2022/01/08 09:58:34;;;;;;;2.35;0.80;;;;;;;;;;5071791;28;20029;-63
2022/01/08 10:00:59;;;;;;;3.33;1.20;;;;;;;;;;5071337;28;20486;-63
2022/01/08 10:03:33;;;;;;;3.60;0.88;;;;;;;;;;5071550;28;20048;-62
2022/01/08 10:05:59;;;;;;;3.40;1.42;;;;;;;;;;5070273;28;20103;-61
2022/01/08 10:08:28;;;;;;;6.85;1.00;;;;;;;;;;5071162;28;20115;-60
2022/01/08 10:10:57;;;;;;;3.95;1.08;;;;;;;;;;5070757;28;20036;-66
2022/01/08 10:13:24;;;;;;;9.65;1.40;;;;;;;;;;5065012;28;20028;-66
2022/01/08 10:18:36;;;;;;;4.22;1.17;;;;;;;;;;5067410;28;20031;-67
2022/01/08 10:21:20;;;;;;;3.97;1.10;;;;;;;;;;5067735;28;20032;-63
2022/01/08 10:23:56;;;;;;;5.05;0.80;;;;;;;;;;5067401;28;20028;-64
2022/01/08 10:26:31;;;;;;;7.30;1.48;;;;;;;;;;5068913;28;20090;-66
2022/01/08 10:28:57;;;;;;;5.43;1.45;;;;;;;;;;5099244;28;20040;-63
2022/01/08 10:31:22;;;;;;;4.03;0.90;;;;;;;;;;5072397;28;20071;-65
2022/01/08 10:34:13;;;;;;;5.00;0.95;;;;;;;;;;5073575;28;20285;-65
2022/01/08 10:36:40;;;;;;;3.85;0.90;;;;;;;;;;5069480;28;20527;-64
2022/01/08 10:39:10;;;;;;;4.20;1.27;;;;;;;;;;5073170;28;20044;-67
2022/01/08 10:41:42;;;;;;;3.20;0.93;;;;;;;;;;5072791;28;20021;-66
2022/01/08 10:44:08;;;;;;;3.97;0.95;;;;;;;;;;5072515;28;20044;-69
2022/01/08 10:46:33;;;;;;;3.88;1.00;;;;;;;;;;5073741;28;20025;-66
2022/01/08 10:48:58;;;;;;;4.45;1.20;;;;;;;;;;5073062;28;20024;-64
2022/01/08 10:51:26;;;;;;;5.68;1.27;;;;;;;;;;5071892;28;20037;-64
2022/01/08 10:53:55;;;;;;;3.10;1.50;;;;;;;;;;5072044;28;20086;-63
2022/01/08 10:56:31;;;;;;;8.32;1.30;;;;;;;;;;5072102;28;20032;-63
2022/01/08 10:58:59;;;;;;;5.05;1.00;;;;;;;;;;5070607;28;20043;-62
2022/01/08 11:01:43;;;;;;;6.05;1.30;;;;;;;;;;5071570;28;20024;-66
2022/01/08 11:04:11;;;;;;;4.95;1.10;;;;;;;;;;5069574;28;20048;-66
2022/01/08 11:06:56;;;;;;;2.33;1.00;;;;;;;;;;5071944;28;20496;-64
2022/01/08 11:09:22;;;;;;;5.55;1.40;;;;;;;;;;5070250;28;20040;-65
2022/01/08 11:11:49;;;;;;;5.40;1.40;;;;;;;;;;5070942;28;20055;-64
2022/01/08 11:14:24;;;;;;;2.63;0.88;;;;;;;;;;5067609;28;20028;-67
2022/01/08 11:16:51;;;;;;;3.90;1.10;;;;;;;;;;5063776;28;20386;-66
2022/01/08 11:19:16;;;;;;;4.00;1.13;;;;;;;;;;5068238;28;20051;-66
2022/01/08 11:21:42;;;;;;;2.97;1.35;;;;;;;;;;5067540;28;20068;-67
2022/01/08 11:24:07;;;;;;;3.80;1.10;;;;;;;;;;5068300;28;20029;-68
2022/01/08 11:26:32;;;;;;;7.88;1.85;;;;;;;;;;5069503;28;21441;-65
2022/01/08 11:28:59;;;;;;;5.35;1.38;;;;;;;;;;5067868;28;20396;-65
2022/01/08 11:31:27;;;;;;;3.97;1.20;;;;;;;;;;5068855;28;20062;-62
2022/01/08 11:33:56;;;;;;;3.58;1.15;;;;;;;;;;5067755;28;20555;-64
2022/01/08 11:36:22;;;;;;;4.45;1.10;;;;;;;;;;5067686;28;20660;-64
2022/01/08 11:38:48;;;;;;;5.47;1.48;;;;;;;;;;5068484;28;20531;-64
2022/01/08 11:41:15;;;;;;;3.95;1.30;;;;;;;;;;5068525;28;20012;-62
2022/01/08 11:43:41;;;;;;;6.30;1.50;;;;;;;;;;5067641;28;20039;-62
2022/01/08 11:46:07;;;;;;;3.88;2.55;;;;;;;;;;5067912;28;20771;-63
2022/01/08 11:48:34;;;;;;;2.90;1.52;;;;;;;;;;5067762;28;20037;-63
2022/01/08 11:51:02;;;;;;;3.28;1.23;;;;;;;;;;5067354;28;20118;-63
2022/01/08 11:53:28;;;;;;;5.65;1.15;;;;;;;;;;5069186;28;20047;-62
2022/01/08 11:56:01;;;;;;;5.10;1.38;;;;;;;;;;5068677;28;20066;-63
2022/01/08 11:58:28;;;;;;;4.20;1.42;;;;;;;;;;5068634;28;20741;-62
2022/01/08 12:01:03;;;;;;;2.75;1.40;;;;;;;;;;5068831;28;20161;-61
2022/01/08 12:03:29;;;;;;;3.40;1.40;;;;;;;;;;5067423;28;20025;-62
2022/01/08 12:05:55;;;;;;;5.40;1.55;;;;;;;;;;5067116;28;20074;-60
2022/01/08 12:08:34;;;;;;;2.53;1.25;;;;;;;;;;5067572;28;20033;-60
2022/01/08 12:11:01;;;;;;;4.75;2.13;;;;;;;;;;5065729;28;20039;-69
2022/01/08 12:13:41;;;;;;;3.50;1.10;;;;;;;;;;5067024;28;20025;-59
2022/01/08 12:16:26;;;;;;;3.03;0.90;;;;;;;;;;5066376;28;20028;-60
2022/01/08 12:18:52;;;;;;;4.35;1.55;;;;;;;;;;5066969;27;20032;-61
2022/01/08 12:21:30;;;;;;;4.20;1.33;;;;;;;;;;5066852;28;20039;-61
2022/01/08 12:23:59;;;;;;;3.33;1.00;;;;;;;;;;5064603;28;20039;-59
2022/01/08 12:26:27;;;;;;;5.22;1.77;;;;;;;;;;5067421;28;20021;-61
2022/01/08 12:28:53;;;;;;;2.10;1.38;;;;;;;;;;5065321;28;20039;-61
2022/01/08 12:50:39;;;;;;;21.30;7.47;;;;;;;4.27;79.25;100419.59;5105850;27;21277;-74
2022/01/08 12:53:07;;;;;;;9.15;6.60;;;;;;;4.27;79.38;100408.94;5054449;27;20051;-75
2022/01/08 12:55:38;;;;;;;18.10;8.43;;;;;;;4.17;79.47;100405.81;5061787;28;20048;-74
2022/01/08 12:58:15;;;;;;;15.10;8.38;;;;;;;4.15;79.53;100398.03;5065174;28;20485;-75
2022/01/08 13:01:10;;;;;;;18.80;8.30;;;;;;;4.00;80.58;100392.00;5064294;28;20035;-75
2022/01/08 13:03:40;;;;;;;15.13;6.13;;;;;;;3.98;80.85;100383.41;5059339;28;20044;-74
2022/01/08 13:06:08;;;;;;;17.00;9.20;;;;;;;3.98;81.45;100374.59;5063993;28;20045;-75
2022/01/08 13:08:34;;;;;;;16.63;9.68;;;;;;;4.04;80.46;100364.03;5063754;28;20346;-75
2022/01/08 13:11:03;;;;;;;16.00;8.65;;;;;;;4.04;80.67;100360.53;5064243;28;20048;-77
2022/01/08 13:13:44;;;;;;;16.70;10.25;;;;;;;4.07;81.70;100355.66;5063948;28;20021;-75
2022/01/08 13:16:13;;;;;;;16.80;10.75;;;;;;;3.95;81.75;100343.91;5062992;28;20090;-74
2022/01/08 13:18:40;;;;;;;18.88;8.90;;;;;;;3.93;81.85;100335.31;5063951;28;20025;-74
2022/01/08 13:21:07;;;;;;;17.85;10.20;;;;;;;4.02;82.70;100333.31;5063545;28;20120;-75
2022/01/08 13:23:43;;;;;;;17.45;8.95;;;;;;;3.98;82.51;100329.41;5069168;28;20028;-74
2022/01/08 13:26:08;;;;;;;17.45;8.88;;;;;;;3.95;82.75;100321.84;5084205;28;20064;-74
2022/01/08 13:28:34;;;;;;;17.48;9.98;;;;;;;4.13;82.57;100311.50;5083592;28;20032;-74
2022/01/08 13:31:00;;;;;;;21.25;9.82;;;;;;;4.15;82.26;100296.16;5083791;28;20109;-74
2022/01/08 13:33:27;;;;;;;18.65;9.23;;;;;;;4.06;82.19;100303.50;5082388;28;20492;-74
2022/01/08 13:36:03;;;;;;;18.98;8.90;;;;;;;4.03;82.34;100305.75;5083572;28;20036;-73
2022/01/08 13:38:35;;;;;;;18.08;8.95;;;;;;;4.01;83.06;100289.97;5071294;28;20025;-73
2022/01/08 13:41:13;;;;;;;14.27;7.95;;;;;;;4.09;82.34;100288.97;5060462;28;20508;-72
2022/01/08 13:44:03;;;;;;;21.20;9.35;;;;;;;4.04;83.52;100276.31;5061777;28;20033;-73
2022/01/08 13:46:31;;;;;;;11.63;8.18;;;;;;;3.98;83.16;100270.94;5061103;28;20094;-75
2022/01/08 13:48:59;;;;;;;15.73;7.88;;;;;;;4.10;82.99;100266.72;5061587;28;20041;-74
2022/01/08 13:51:26;;;;;;;11.40;8.48;;;;;;;4.12;82.97;100246.06;5061508;28;20488;-76
2022/01/08 13:54:05;;;;;;;14.80;7.60;;;;;;;4.09;83.54;100239.28;5062206;28;20496;-71
2022/01/08 13:56:32;;;;;;;12.90;9.30;;;;;;;3.99;83.80;100233.53;5061564;28;20094;-74
2022/01/08 13:59:12;;;;;;;11.90;7.65;;;;;;;3.98;84.49;100231.06;5063608;28;20021;-74
2022/01/08 14:01:46;;;;;;;12.32;7.43;;;;;;;3.93;84.53;100213.03;5050814;28;20025;-72
2022/01/08 14:04:13;;;;;;;13.05;8.30;;;;;;;3.91;85.10;100204.44;5050764;28;20099;-74
2022/01/08 14:06:41;;;;;;;11.07;7.43;;;;;;;3.95;84.12;100196.94;5047485;28;20072;-74
2022/01/08 14:09:09;;;;;;;13.82;8.15;;;;;;;3.93;84.04;100199.75;5051219;28;20033;-74
2022/01/08 14:11:34;;;;;;;19.83;7.50;;;;;;;3.87;84.12;100184.59;5051509;28;20064;-76
2022/01/08 14:14:02;;;;;;;15.18;5.20;;;;;;;3.83;82.79;100185.22;5049465;28;20033;-76
2022/01/08 14:16:28;;;;;;;8.73;5.30;;;;;;;3.76;83.47;100174.53;5056326;28;20072;-75
2022/01/08 14:19:04;;;;;;;8.95;5.80;;;;;;;3.83;83.47;100164.78;5050070;28;20037;-74
2022/01/08 14:21:29;;;;;;;9.43;4.80;;;;;;;3.79;83.03;100152.91;5048047;28;20120;-74
2022/01/08 14:23:55;;;;;;;7.75;4.40;;;;;;;3.76;82.87;100153.28;5046500;28;20120;-74
2022/01/08 14:26:29;;;;;;;6.63;4.00;;;;;;;3.75;83.27;100142.88;5049251;28;20041;-73
2022/01/08 14:29:06;;;;;;;11.18;4.32;;;;;;;3.76;83.49;100136.53;5048029;28;21150;-73
2022/01/08 14:31:33;;;;;;;7.93;3.70;;;;;;;3.80;82.37;100116.50;5047756;28;20032;-73
2022/01/08 14:34:21;;;;;;;8.52;3.20;;;;;;;3.68;82.54;100105.63;5048472;28;20108;-72
2022/01/08 14:36:52;;;;;;;7.45;4.68;;;;;;;3.66;82.75;100090.91;5048669;28;20168;-74
2022/01/08 14:39:39;;;;;;;6.60;3.65;;;;;;;3.68;82.77;100092.34;5048577;28;20041;-74
2022/01/08 14:42:07;;;;;;;5.63;3.70;;;;;;;3.71;82.49;100078.69;5044660;28;20044;-74
2022/01/08 14:44:34;;;;;;;5.60;3.53;;;;;;;3.68;82.66;100065.78;5049062;28;20475;-76
2022/01/08 14:47:00;;;;;;;5.90;3.75;;;;;;;3.74;82.94;100072.97;5049312;28;20037;-73